createdAt,value
2022-12-20T00:01:14.228Z,6.10
2022-12-20T00:08:30.979Z,5.85
2022-12-20T00:11:01.354Z,6.10
2022-12-20T00:13:32.792Z,5.97
2022-12-20T00:16:11.536Z,6.08
2022-12-20T00:18:40.879Z,6.07
2022-12-20T00:21:11.839Z,6.16
2022-12-20T00:23:40.953Z,6.23
2022-12-20T00:26:19.877Z,6.16
2022-12-20T00:28:48.528Z,6.14
2022-12-20T00:31:18.202Z,6.09
2022-12-20T00:33:47.788Z,6.04
2022-12-20T00:37:16.839Z,6.20
2022-12-20T00:39:47.593Z,5.78
2022-12-20T00:43:23.109Z,6.19
2022-12-20T00:47:07.865Z,6.01
2022-12-20T00:49:33.098Z,6.10
2022-12-20T00:52:00.764Z,6.02
2022-12-20T00:54:41.405Z,6.10
2022-12-20T00:57:27.382Z,6.12
2022-12-20T01:04:06.241Z,6.19
2022-12-20T01:06:35.263Z,6.30
2022-12-20T01:09:02.866Z,6.21
2022-12-20T01:11:33.533Z,6.35
2022-12-20T01:17:32.859Z,6.31
2022-12-20T01:20:00.693Z,6.27
2022-12-20T01:22:28.454Z,6.10
2022-12-20T01:28:29.678Z,6.33
2022-12-20T01:30:57.691Z,6.33
2022-12-20T01:33:25.302Z,6.55
2022-12-20T01:36:00.403Z,6.37
2022-12-20T01:42:37.629Z,6.49
2022-12-20T01:45:09.143Z,6.39
2022-12-20T01:48:19.178Z,6.35
2022-12-20T01:50:48.165Z,6.23
2022-12-20T01:53:18.276Z,6.32
2022-12-20T01:55:47.950Z,6.41
2022-12-20T01:58:20.096Z,6.38
2022-12-20T02:00:48.095Z,6.26
2022-12-20T02:04:15.094Z,6.18
2022-12-20T02:07:31.187Z,6.32
2022-12-20T02:10:01.037Z,6.39
2022-12-20T02:12:45.533Z,6.34
2022-12-20T02:19:21.396Z,6.28
2022-12-20T02:22:04.198Z,6.19
2022-12-20T02:24:43.570Z,6.15
2022-12-20T02:27:52.772Z,6.03
2022-12-20T02:30:22.995Z,6.35
2022-12-20T02:33:03.696Z,6.35
2022-12-20T02:35:34.507Z,6.29
2022-12-20T02:38:30.178Z,6.31
2022-12-20T02:41:07.310Z,6.24
2022-12-20T02:43:58.197Z,6.11
2022-12-20T02:46:27.594Z,6.18
2022-12-20T02:49:50.161Z,6.18
2022-12-20T02:52:31.251Z,6.13
2022-12-20T02:55:03.206Z,6.16
2022-12-20T02:58:14.000Z,6.26
2022-12-20T03:00:48.864Z,6.25
2022-12-20T03:03:23.011Z,6.42
2022-12-20T03:09:52.848Z,6.38
2022-12-20T03:12:28.801Z,6.38
2022-12-20T03:14:56.437Z,6.24
2022-12-20T03:17:24.220Z,6.14
2022-12-20T03:20:19.409Z,6.45
2022-12-20T03:22:47.056Z,6.28
2022-12-20T03:25:15.043Z,6.35
2022-12-20T03:31:08.391Z,6.28
2022-12-20T03:33:44.452Z,6.13
2022-12-20T03:36:12.648Z,6.28
2022-12-20T03:38:40.687Z,6.54
2022-12-20T03:41:09.013Z,6.41
2022-12-20T03:43:36.625Z,6.46
2022-12-20T03:46:29.932Z,6.41
2022-12-20T03:48:58.412Z,6.40
2022-12-20T03:51:27.976Z,6.37
2022-12-20T03:57:27.424Z,6.42
2022-12-20T03:59:57.384Z,6.21
2022-12-20T04:02:50.267Z,6.37
2022-12-20T04:05:18.649Z,6.41
2022-12-20T04:08:57.884Z,6.33
2022-12-20T04:11:30.896Z,6.52
2022-12-20T04:14:14.155Z,6.61
2022-12-20T04:16:44.525Z,6.49
2022-12-20T04:19:12.513Z,6.45
2022-12-20T04:21:44.242Z,6.38
2022-12-20T04:24:12.692Z,6.29
2022-12-20T04:27:07.775Z,6.26
2022-12-20T04:29:35.525Z,6.33
2022-12-20T04:32:06.165Z,6.27
2022-12-20T04:34:33.982Z,6.38
2022-12-20T04:37:01.941Z,6.35
2022-12-20T04:39:39.715Z,6.39
2022-12-20T04:43:30.371Z,6.47
2022-12-20T04:50:33.525Z,6.54
2022-12-20T04:53:19.859Z,6.46
2022-12-20T04:55:48.352Z,6.59
2022-12-20T04:58:55.751Z,6.53
2022-12-20T05:01:24.063Z,6.49
2022-12-20T05:04:55.519Z,6.42
2022-12-20T05:08:16.810Z,6.53
2022-12-20T05:10:44.774Z,6.67
2022-12-20T05:13:14.005Z,6.54
2022-12-20T05:15:46.879Z,6.42
2022-12-20T05:18:14.627Z,6.45
2022-12-20T05:21:21.804Z,6.45
2022-12-20T05:24:20.683Z,6.47
2022-12-20T05:27:30.606Z,6.53
2022-12-20T05:29:58.659Z,6.45
2022-12-20T05:32:28.744Z,6.36
2022-12-20T05:35:31.026Z,6.54
2022-12-20T05:38:06.915Z,6.56
2022-12-20T05:40:37.667Z,6.43
2022-12-20T05:43:06.359Z,6.35
2022-12-20T05:45:48.520Z,6.23
2022-12-20T05:48:20.699Z,6.21
2022-12-20T05:51:39.746Z,6.23
2022-12-20T05:55:08.121Z,6.26
2022-12-20T05:58:51.804Z,6.39
2022-12-20T06:02:02.592Z,6.55
2022-12-20T06:04:38.701Z,6.34
2022-12-20T06:07:40.904Z,6.12
2022-12-20T06:10:09.693Z,6.08
2022-12-20T06:12:51.619Z,5.98
2022-12-20T06:15:19.521Z,6.14
2022-12-20T06:22:08.871Z,6.15
2022-12-20T06:24:48.595Z,6.29
2022-12-20T06:27:21.591Z,6.63
2022-12-20T06:29:55.715Z,6.61
2022-12-20T06:32:26.959Z,6.36
2022-12-20T06:34:55.492Z,6.47
2022-12-20T06:37:23.281Z,6.51
2022-12-20T06:39:51.047Z,6.52
2022-12-20T06:42:18.683Z,6.74
2022-12-20T06:44:47.279Z,6.78
2022-12-20T06:47:15.900Z,6.78
2022-12-20T06:49:43.499Z,6.84
2022-12-20T06:52:19.177Z,6.93
2022-12-20T06:54:49.877Z,6.80
2022-12-20T06:57:17.463Z,6.53
2022-12-20T06:59:47.957Z,6.71
2022-12-20T07:02:15.829Z,6.87
2022-12-20T07:04:43.560Z,6.81
2022-12-20T07:07:13.356Z,6.78
2022-12-20T07:09:41.638Z,6.74
2022-12-20T07:12:10.056Z,6.67
2022-12-20T07:14:37.824Z,6.64
2022-12-20T07:17:05.998Z,6.71
2022-12-20T07:19:34.293Z,6.79
2022-12-20T07:22:02.663Z,6.90
2022-12-20T07:24:30.354Z,6.86
2022-12-20T07:26:58.437Z,6.92
2022-12-20T07:29:25.969Z,7.05
2022-12-20T07:31:53.677Z,6.83
2022-12-20T07:34:21.492Z,6.89
2022-12-20T07:36:48.994Z,6.98
2022-12-20T07:39:16.844Z,7.02
2022-12-20T07:41:45.072Z,7.13
2022-12-20T07:44:16.902Z,6.99
2022-12-20T07:46:44.371Z,6.91
2022-12-20T07:49:11.904Z,6.83
2022-12-20T07:51:43.982Z,7.12
2022-12-20T07:54:19.579Z,7.46
2022-12-20T07:56:48.038Z,7.59
2022-12-20T07:59:20.512Z,7.06
2022-12-20T08:01:49.103Z,7.18
2022-12-20T08:04:21.195Z,7.00
2022-12-20T08:06:50.771Z,7.20
2022-12-20T08:09:19.304Z,7.38
2022-12-20T08:11:49.279Z,7.56
2022-12-20T08:14:18.573Z,7.72
2022-12-20T08:16:46.641Z,6.89
2022-12-20T08:19:14.252Z,6.90
2022-12-20T08:21:41.747Z,7.29
2022-12-20T08:24:09.375Z,7.22
2022-12-20T08:26:41.869Z,7.31
2022-12-20T08:29:09.509Z,7.11
2022-12-20T08:31:49.475Z,7.23
2022-12-20T08:34:18.343Z,7.25
2022-12-20T08:36:45.811Z,7.11
2022-12-20T08:39:13.321Z,7.24
2022-12-20T08:41:40.849Z,7.07
2022-12-20T08:44:09.577Z,7.24
2022-12-20T08:46:55.358Z,7.39
2022-12-20T08:49:22.865Z,7.65
2022-12-20T08:51:50.494Z,7.80
2022-12-20T08:54:18.020Z,7.97
2022-12-20T08:56:45.527Z,7.75
2022-12-20T08:59:13.104Z,7.45
2022-12-20T09:01:40.868Z,7.49
2022-12-20T09:04:10.915Z,7.27
2022-12-20T09:06:39.242Z,7.42
2022-12-20T09:09:07.575Z,7.79
2022-12-20T09:11:35.129Z,7.43
2022-12-20T09:14:03.286Z,7.70
2022-12-20T09:16:33.271Z,7.65
2022-12-20T09:19:05.446Z,7.81
2022-12-20T09:21:34.559Z,7.59
2022-12-20T09:24:02.086Z,7.80
2022-12-20T09:26:30.746Z,7.69
2022-12-20T09:28:59.189Z,7.77
2022-12-20T09:31:27.302Z,7.49
2022-12-20T09:33:59.208Z,7.68
2022-12-20T09:36:29.153Z,7.68
2022-12-20T09:38:57.585Z,7.65
2022-12-20T09:41:31.839Z,7.11
2022-12-20T09:44:01.179Z,7.57
2022-12-20T09:46:28.860Z,7.55
2022-12-20T09:48:57.716Z,7.83
2022-12-20T09:51:44.338Z,8.37
2022-12-20T09:54:20.670Z,8.44
2022-12-20T09:57:17.235Z,8.29
2022-12-20T09:59:50.039Z,8.39
2022-12-20T10:02:55.736Z,8.71
2022-12-20T10:05:24.751Z,8.74
2022-12-20T10:08:09.238Z,8.44
2022-12-20T10:10:55.590Z,8.54
2022-12-20T10:13:29.152Z,8.60
2022-12-20T10:16:27.721Z,8.38
2022-12-20T10:19:02.104Z,8.05
2022-12-20T10:21:56.770Z,8.34
2022-12-20T10:24:35.109Z,8.33
2022-12-20T10:27:13.407Z,8.15
2022-12-20T10:29:41.665Z,8.22
2022-12-20T10:32:18.781Z,8.34
2022-12-20T10:34:55.281Z,8.66
2022-12-20T10:37:22.930Z,8.49
2022-12-20T10:39:52.142Z,8.05
2022-12-20T10:42:28.730Z,8.12
2022-12-20T10:44:57.915Z,8.13
2022-12-20T10:47:45.654Z,8.23
2022-12-20T10:50:25.070Z,8.29
2022-12-20T10:53:22.930Z,8.25
2022-12-20T10:55:51.930Z,8.35
2022-12-20T10:58:22.296Z,8.69
2022-12-20T11:00:49.927Z,8.84
2022-12-20T11:03:22.821Z,8.99
2022-12-20T11:05:59.665Z,8.77
2022-12-20T11:08:42.746Z,8.47
2022-12-20T11:11:22.091Z,8.51
2022-12-20T11:13:51.466Z,8.35
2022-12-20T11:16:38.098Z,8.85
2022-12-20T11:19:29.276Z,8.48
2022-12-20T11:22:08.038Z,8.62
2022-12-20T11:25:23.248Z,8.95
2022-12-20T11:28:21.379Z,8.54
2022-12-20T11:31:04.300Z,9.23
2022-12-20T11:33:41.313Z,8.98
2022-12-20T11:36:25.722Z,9.21
2022-12-20T11:39:01.550Z,9.19
2022-12-20T11:41:56.499Z,9.32
2022-12-20T11:45:03.283Z,9.26
2022-12-20T11:47:36.116Z,9.03
2022-12-20T11:50:44.655Z,9.34
2022-12-20T11:53:39.266Z,9.46
2022-12-20T11:56:21.620Z,9.14
2022-12-20T11:59:01.117Z,9.36
2022-12-20T12:01:41.371Z,9.25
2022-12-20T12:04:17.532Z,9.54
2022-12-20T12:06:52.197Z,9.50
2022-12-20T12:09:36.844Z,9.49
2022-12-20T12:12:39.524Z,9.22
2022-12-20T12:15:16.235Z,9.48
2022-12-20T12:18:03.022Z,9.48
2022-12-20T12:20:30.378Z,9.57
2022-12-20T12:23:05.827Z,9.35
2022-12-20T12:25:33.461Z,9.40
2022-12-20T12:28:01.219Z,8.68
2022-12-20T12:30:36.416Z,8.74
2022-12-20T12:33:23.961Z,9.11
2022-12-20T12:36:03.949Z,9.18
2022-12-20T12:38:44.387Z,9.36
2022-12-20T12:41:39.520Z,9.43
2022-12-20T12:44:19.150Z,9.28
2022-12-20T12:46:53.855Z,8.81
2022-12-20T12:49:24.928Z,8.91
2022-12-20T12:51:55.886Z,8.83
2022-12-20T12:54:37.618Z,8.60
2022-12-20T12:57:14.586Z,8.48
2022-12-20T12:59:48.395Z,8.61
2022-12-20T13:02:16.724Z,8.83
2022-12-20T13:04:53.420Z,9.17
2022-12-20T13:07:32.912Z,9.13
2022-12-20T13:10:03.342Z,8.78
2022-12-20T13:12:36.696Z,8.85
2022-12-20T13:15:22.428Z,9.23
2022-12-20T13:17:55.129Z,9.12
2022-12-20T13:20:24.294Z,9.20
2022-12-20T13:23:12.905Z,9.39
2022-12-20T13:25:47.994Z,9.13
2022-12-20T13:28:24.432Z,8.77
2022-12-20T13:30:58.082Z,8.75
2022-12-20T13:33:45.410Z,8.60
2022-12-20T13:36:12.941Z,8.91
2022-12-20T13:38:43.270Z,9.02
2022-12-20T13:41:36.577Z,8.60
2022-12-20T13:44:16.002Z,8.77
2022-12-20T13:47:12.539Z,8.54
2022-12-20T13:49:41.635Z,8.75
2022-12-20T13:52:32.487Z,8.40
2022-12-20T13:55:08.137Z,8.34
2022-12-20T13:57:45.001Z,8.34
2022-12-20T14:00:25.559Z,8.39
2022-12-20T14:02:54.630Z,8.83
2022-12-20T14:05:42.541Z,8.87
2022-12-20T14:08:16.040Z,8.69
2022-12-20T14:10:43.538Z,8.34
2022-12-20T14:13:21.004Z,8.61
2022-12-20T14:15:49.293Z,8.65
2022-12-20T14:18:24.820Z,8.73
2022-12-20T14:20:59.240Z,8.78
2022-12-20T14:23:37.925Z,8.91
2022-12-20T14:26:07.564Z,8.60
2022-12-20T14:28:45.513Z,8.68
2022-12-20T14:31:48.975Z,8.33
2022-12-20T14:34:26.010Z,8.47
2022-12-20T14:37:17.775Z,8.43
2022-12-20T14:40:11.376Z,8.51
2022-12-20T14:42:40.257Z,8.47
2022-12-20T14:45:10.397Z,8.40
2022-12-20T14:47:47.868Z,8.46
2022-12-20T14:50:27.953Z,8.41
2022-12-20T14:52:56.735Z,8.15
2022-12-20T14:55:33.732Z,8.45
2022-12-20T14:58:01.875Z,8.59
2022-12-20T15:00:32.125Z,8.32
2022-12-20T15:03:02.327Z,8.52
2022-12-20T15:05:36.361Z,8.47
2022-12-20T15:08:16.806Z,8.40
2022-12-20T15:11:09.081Z,8.41
2022-12-20T15:13:39.754Z,8.33
2022-12-20T15:16:19.964Z,8.37
2022-12-20T15:18:49.254Z,8.25
2022-12-20T15:21:48.824Z,8.32
2022-12-20T15:24:19.911Z,8.36
2022-12-20T15:26:49.262Z,8.50
2022-12-20T15:29:21.366Z,8.70
2022-12-20T15:31:50.073Z,8.66
2022-12-20T15:34:29.327Z,8.69
2022-12-20T15:37:00.175Z,8.49
2022-12-20T15:39:28.123Z,8.50
2022-12-20T15:41:56.406Z,8.06
2022-12-20T15:44:26.858Z,8.22
2022-12-20T15:46:55.009Z,8.33
2022-12-20T15:49:28.047Z,8.46
2022-12-20T15:51:56.248Z,8.37
2022-12-20T15:54:27.403Z,8.10
2022-12-20T15:56:57.694Z,7.98
2022-12-20T15:59:58.317Z,8.20
2022-12-20T16:02:22.651Z,8.30
2022-12-20T16:04:51.193Z,8.29
2022-12-20T16:07:18.870Z,8.41
2022-12-20T16:09:46.511Z,8.34
2022-12-20T16:12:18.635Z,8.22
2022-12-20T16:14:46.251Z,8.12
2022-12-20T16:17:14.628Z,8.02
2022-12-20T16:19:45.143Z,8.10
2022-12-20T16:22:18.309Z,8.09
2022-12-20T16:24:46.344Z,8.21
2022-12-20T16:27:13.973Z,8.54
2022-12-20T16:29:41.734Z,8.56
2022-12-20T16:32:20.079Z,8.45
2022-12-20T16:34:49.521Z,8.77
2022-12-20T16:37:17.481Z,9.04
2022-12-20T16:39:45.063Z,8.57
2022-12-20T16:42:17.720Z,8.68
2022-12-20T16:44:46.308Z,9.09
2022-12-20T16:47:14.974Z,9.17
2022-12-20T16:49:49.666Z,9.24
2022-12-20T16:52:20.007Z,9.30
2022-12-20T16:54:47.542Z,9.41
2022-12-20T16:57:15.008Z,9.63
2022-12-20T16:59:42.364Z,9.53
2022-12-20T17:02:27.552Z,9.30
2022-12-20T17:04:55.424Z,9.39
2022-12-20T17:07:23.035Z,9.27
2022-12-20T17:09:50.502Z,9.00
2022-12-20T17:12:20.737Z,9.38
2022-12-20T17:14:48.997Z,9.26
2022-12-20T17:17:17.481Z,9.05
2022-12-20T17:19:45.077Z,9.08
2022-12-20T17:24:58.235Z,9.54
2022-12-20T17:27:26.303Z,9.51
2022-12-20T17:29:53.946Z,9.36
2022-12-20T17:32:24.561Z,9.30
2022-12-20T17:34:53.634Z,9.71
2022-12-20T17:37:21.887Z,9.54
2022-12-20T17:39:49.461Z,9.68
2022-12-20T17:42:17.264Z,9.81
2022-12-20T17:44:46.384Z,9.21
2022-12-20T17:47:16.489Z,8.76
2022-12-20T17:49:44.082Z,9.03
2022-12-20T17:52:15.602Z,8.89
2022-12-20T17:54:43.195Z,8.96
2022-12-20T17:57:19.211Z,8.61
2022-12-20T17:59:47.402Z,8.74
2022-12-20T18:02:23.573Z,8.39
2022-12-20T18:04:51.945Z,8.50
2022-12-20T18:07:19.708Z,8.69
2022-12-20T18:09:48.288Z,8.87
2022-12-20T18:12:17.028Z,9.04
2022-12-20T18:14:45.077Z,8.96
2022-12-20T18:17:14.078Z,9.10
2022-12-20T18:19:51.745Z,8.90
2022-12-20T18:22:19.972Z,9.05
2022-12-20T18:24:47.486Z,9.04
2022-12-20T18:27:15.067Z,9.08
2022-12-20T18:29:43.381Z,9.03
2022-12-20T18:32:11.180Z,9.11
2022-12-20T18:34:39.248Z,9.32
2022-12-20T18:37:06.886Z,8.95
2022-12-20T18:39:34.391Z,9.40
2022-12-20T18:42:02.001Z,9.25
2022-12-20T18:44:29.564Z,9.10
2022-12-20T18:46:57.136Z,8.71
2022-12-20T18:49:24.730Z,8.56
2022-12-20T18:51:52.216Z,8.37
2022-12-20T18:54:19.765Z,8.71
2022-12-20T18:56:49.397Z,8.17
2022-12-20T18:59:17.100Z,8.35
2022-12-20T19:01:44.708Z,8.01
2022-12-20T19:04:12.385Z,8.32
2022-12-20T19:06:40.189Z,8.39
2022-12-20T19:09:13.378Z,8.45
2022-12-20T19:11:56.172Z,8.40
2022-12-20T19:14:28.596Z,8.35
2022-12-20T19:16:56.220Z,8.42
2022-12-20T19:19:26.597Z,8.25
2022-12-20T19:21:54.185Z,8.36
2022-12-20T19:24:21.843Z,8.49
2022-12-20T19:26:49.739Z,8.66
2022-12-20T19:29:17.350Z,8.40
2022-12-20T19:31:44.965Z,8.40
2022-12-20T19:34:13.219Z,8.36
2022-12-20T19:36:43.433Z,8.31
2022-12-20T19:39:16.947Z,8.20
2022-12-20T19:41:54.978Z,7.86
2022-12-20T19:44:28.023Z,8.16
2022-12-20T19:46:55.764Z,8.15
2022-12-20T19:49:23.677Z,8.02
2022-12-20T19:51:51.215Z,7.89
2022-12-20T19:54:18.788Z,8.27
2022-12-20T19:56:46.305Z,8.19
2022-12-20T19:59:14.335Z,8.14
2022-12-20T20:01:42.062Z,8.07
2022-12-20T20:04:12.179Z,8.30
2022-12-20T20:06:39.897Z,8.21
2022-12-20T20:09:07.732Z,8.13
2022-12-20T20:11:35.327Z,8.20
2022-12-20T20:14:04.016Z,7.95
2022-12-20T20:16:32.007Z,8.16
2022-12-20T20:18:59.686Z,8.21
2022-12-20T20:21:27.615Z,8.15
2022-12-20T20:23:55.610Z,8.15
2022-12-20T20:26:26.906Z,8.20
2022-12-20T20:28:54.560Z,8.41
2022-12-20T20:31:22.627Z,8.49
2022-12-20T20:33:50.812Z,8.60
2022-12-20T20:36:21.377Z,8.38
2022-12-20T20:38:50.291Z,8.10
2022-12-20T20:41:18.972Z,8.40
2022-12-20T20:43:52.231Z,8.35
2022-12-20T20:46:20.043Z,8.42
2022-12-20T20:48:47.904Z,8.27
2022-12-20T20:51:15.773Z,8.44
2022-12-20T20:53:46.512Z,8.34
2022-12-20T20:56:14.180Z,8.44
2022-12-20T20:58:42.761Z,8.40
2022-12-20T21:01:11.268Z,8.46
2022-12-20T21:03:40.244Z,8.18
2022-12-20T21:08:56.925Z,8.50
2022-12-20T21:11:32.847Z,8.55
2022-12-20T21:14:00.776Z,8.72
2022-12-20T21:16:29.837Z,8.81
2022-12-20T21:18:58.942Z,7.87
2022-12-20T21:21:26.915Z,8.09
2022-12-20T21:23:55.110Z,8.04
2022-12-20T21:26:30.197Z,8.19
2022-12-20T21:29:01.359Z,7.86
2022-12-20T21:31:29.189Z,7.78
2022-12-20T21:33:57.389Z,8.24
2022-12-20T21:36:25.588Z,8.29
2022-12-20T21:38:55.917Z,8.36
2022-12-20T21:45:12.104Z,8.15
2022-12-20T21:47:42.866Z,8.14
2022-12-20T21:50:10.737Z,8.23
2022-12-20T21:52:40.074Z,8.17
2022-12-20T21:55:08.151Z,8.31
2022-12-20T21:57:35.911Z,8.03
2022-12-20T22:00:05.035Z,8.49
2022-12-20T22:02:36.048Z,8.57
2022-12-20T22:05:03.918Z,8.61
2022-12-20T22:07:33.775Z,8.74
2022-12-20T22:10:01.491Z,8.69
2022-12-20T22:12:29.157Z,8.75
2022-12-20T22:14:56.795Z,8.54
2022-12-20T22:17:26.714Z,8.65
2022-12-20T22:19:54.238Z,8.69
2022-12-20T22:22:22.006Z,8.48
2022-12-20T22:24:49.592Z,8.61
2022-12-20T22:27:17.252Z,8.73
2022-12-20T22:29:44.823Z,8.64
2022-12-20T22:32:12.625Z,8.68
2022-12-20T22:34:40.320Z,8.54
2022-12-20T22:37:07.898Z,8.61
2022-12-20T22:39:35.553Z,8.77
2022-12-20T22:42:03.208Z,8.88
2022-12-20T22:44:35.951Z,8.86
2022-12-20T22:47:03.571Z,8.47
2022-12-20T22:49:31.183Z,8.21
2022-12-20T22:52:06.816Z,8.47
2022-12-20T22:54:37.491Z,8.60
2022-12-20T22:57:05.046Z,8.91
2022-12-20T22:59:34.681Z,8.89
2022-12-20T23:02:02.467Z,9.06
2022-12-20T23:04:30.175Z,9.23
2022-12-20T23:06:57.852Z,9.34
2022-12-20T23:09:26.447Z,9.24
2022-12-20T23:12:12.646Z,8.74
2022-12-20T23:15:03.829Z,8.65
2022-12-20T23:17:32.817Z,8.46
2022-12-20T23:20:18.451Z,8.66
2022-12-20T23:22:50.941Z,8.61
2022-12-20T23:25:29.392Z,8.75
2022-12-20T23:27:59.781Z,8.83
2022-12-20T23:30:28.087Z,8.56
2022-12-20T23:32:56.283Z,8.49
2022-12-20T23:35:56.497Z,8.68
2022-12-20T23:38:24.076Z,8.40
2022-12-20T23:40:51.834Z,8.41
2022-12-20T23:43:19.657Z,8.61
2022-12-20T23:45:47.356Z,8.52
2022-12-20T23:48:17.652Z,8.41
2022-12-20T23:50:45.500Z,8.58
2022-12-20T23:53:13.037Z,8.55
2022-12-20T23:55:40.656Z,8.39
2022-12-20T23:58:08.252Z,8.39
